createdAt,value
2023-03-01T00:00:35.628Z,-1.70
2023-03-01T00:04:04.985Z,-1.72
2023-03-01T00:07:31.652Z,-1.74
2023-03-01T00:11:08.038Z,-1.78
2023-03-01T00:14:34.935Z,-1.83
2023-03-01T00:18:02.024Z,-1.85
2023-03-01T00:21:32.326Z,-1.87
2023-03-01T00:25:04.119Z,-1.89
2023-03-01T00:28:31.200Z,-1.92
2023-03-01T00:31:57.750Z,-1.91
2023-03-01T00:35:25.480Z,-1.88
2023-03-01T00:38:53.685Z,-1.86
2023-03-01T00:42:20.947Z,-1.83
2023-03-01T00:45:48.446Z,-1.81
2023-03-01T00:49:15.625Z,-1.77
2023-03-01T00:52:43.479Z,-1.75
2023-03-01T00:56:13.269Z,-1.72
2023-03-01T00:59:41.346Z,-1.67
2023-03-01T01:03:15.193Z,-1.64
2023-03-01T01:06:50.679Z,-1.63
2023-03-01T01:10:19.183Z,-1.63
2023-03-01T01:13:46.579Z,-1.64
2023-03-01T01:17:13.490Z,-1.67
2023-03-01T01:20:41.224Z,-1.71
2023-03-01T01:24:09.882Z,-1.76
2023-03-01T01:27:37.558Z,-1.86
2023-03-01T01:31:04.321Z,-1.96
2023-03-01T01:34:30.932Z,-2.01
2023-03-01T01:37:58.174Z,-2.05
2023-03-01T01:41:27.182Z,-2.07
2023-03-01T01:45:33.361Z,-2.08
2023-03-01T01:49:04.677Z,-2.09
2023-03-01T01:52:37.544Z,-2.12
2023-03-01T01:56:09.324Z,-2.15
2023-03-01T01:59:37.389Z,-2.17
2023-03-01T02:03:07.545Z,-2.19
2023-03-01T02:06:39.319Z,-2.21
2023-03-01T02:10:07.408Z,-2.22
2023-03-01T02:13:34.979Z,-2.26
2023-03-01T02:17:02.991Z,-2.29
2023-03-01T02:20:36.013Z,-2.31
2023-03-01T02:24:13.049Z,-2.32
2023-03-01T02:27:46.692Z,-2.33
2023-03-01T02:31:38.516Z,-2.35
2023-03-01T02:35:07.837Z,-2.34
2023-03-01T02:38:34.693Z,-2.33
2023-03-01T02:42:01.850Z,-2.30
2023-03-01T02:45:29.921Z,-2.27
2023-03-01T02:49:00.043Z,-2.22
2023-03-01T02:52:42.198Z,-2.16
2023-03-01T02:56:14.160Z,-2.11
2023-03-01T02:59:43.887Z,-2.04
2023-03-01T03:03:11.009Z,-1.99
2023-03-01T03:06:38.262Z,-1.96
2023-03-01T03:10:05.949Z,-1.97
2023-03-01T03:13:33.458Z,-2.01
2023-03-01T03:17:00.405Z,-2.03
2023-03-01T03:20:29.884Z,-2.07
2023-03-01T03:23:58.377Z,-2.11
2023-03-01T03:27:26.035Z,-2.15
2023-03-01T03:30:52.748Z,-2.19
2023-03-01T03:34:19.421Z,-2.23
2023-03-01T03:38:04.648Z,-2.27
2023-03-01T03:41:31.434Z,-2.31
2023-03-01T03:44:58.487Z,-2.34
2023-03-01T03:48:25.859Z,-2.34
2023-03-01T03:51:52.820Z,-2.36
2023-03-01T03:55:20.856Z,-2.36
2023-03-01T03:58:48.177Z,-2.38
2023-03-01T04:02:23.439Z,-2.40
2023-03-01T04:05:51.793Z,-2.42
2023-03-01T04:09:18.357Z,-2.43
2023-03-01T04:12:46.020Z,-2.44
2023-03-01T04:16:12.503Z,-2.45
2023-03-01T04:19:39.322Z,-2.45
2023-03-01T04:23:14.566Z,-2.46
2023-03-01T04:26:41.865Z,-2.44
2023-03-01T04:30:12.203Z,-2.42
2023-03-01T04:33:39.766Z,-2.38
2023-03-01T04:37:06.270Z,-2.34
2023-03-01T04:40:34.534Z,-2.24
2023-03-01T04:44:01.765Z,-2.14
2023-03-01T04:47:28.323Z,-2.06
2023-03-01T04:50:54.984Z,-1.96
2023-03-01T04:54:22.155Z,-1.89
2023-03-01T04:57:49.826Z,-1.83
2023-03-01T05:01:20.025Z,-1.81
2023-03-01T05:04:47.315Z,-1.82
2023-03-01T05:08:18.652Z,-1.85
2023-03-01T05:11:45.815Z,-1.90
2023-03-01T05:15:14.516Z,-1.97
2023-03-01T05:18:42.871Z,-2.00
2023-03-01T05:22:09.377Z,-2.02
2023-03-01T05:25:41.598Z,-2.05
2023-03-01T05:29:11.010Z,-2.08
2023-03-01T05:32:40.174Z,-2.11
2023-03-01T05:36:09.435Z,-2.14
2023-03-01T05:39:36.246Z,-2.16
2023-03-01T05:43:06.361Z,-2.17
2023-03-01T05:46:32.960Z,-2.18
2023-03-01T05:50:00.012Z,-2.21
2023-03-01T05:53:27.732Z,-2.22
2023-03-01T05:56:54.879Z,-2.23
2023-03-01T06:00:24.436Z,-2.22
2023-03-01T06:03:51.079Z,-2.22
2023-03-01T06:07:17.789Z,-2.21
2023-03-01T06:10:44.983Z,-2.21
2023-03-01T06:14:16.051Z,-2.19
2023-03-01T06:17:45.254Z,-2.17
2023-03-01T06:21:12.028Z,-2.13
2023-03-01T06:24:38.650Z,-2.07
2023-03-01T06:28:05.706Z,-2.01
2023-03-01T06:31:32.740Z,-1.93
2023-03-01T06:34:59.786Z,-1.86
2023-03-01T06:38:26.767Z,-1.76
2023-03-01T06:41:54.295Z,-1.63
2023-03-01T06:45:23.364Z,-1.51
2023-03-01T06:48:52.427Z,-1.39
2023-03-01T06:52:20.780Z,-1.27
2023-03-01T06:55:49.237Z,-1.17
2023-03-01T06:59:16.556Z,-1.09
2023-03-01T07:02:43.531Z,-1.07
2023-03-01T07:06:11.794Z,-1.01
2023-03-01T07:09:38.750Z,-0.97
2023-03-01T07:13:07.945Z,-0.93
2023-03-01T07:16:35.659Z,-0.90
2023-03-01T07:20:02.859Z,-0.87
2023-03-01T07:23:29.658Z,-0.84
2023-03-01T07:26:56.684Z,-0.78
2023-03-01T07:30:23.724Z,-0.71
2023-03-01T07:33:50.927Z,-0.65
2023-03-01T07:37:17.889Z,-0.57
2023-03-01T07:40:44.765Z,-0.50
2023-03-01T07:44:13.815Z,-0.42
2023-03-01T07:47:40.678Z,-0.33
2023-03-01T07:51:09.985Z,-0.23
2023-03-01T07:54:38.113Z,-0.12
2023-03-01T07:58:04.812Z,-0.01
2023-03-01T08:01:31.619Z,0.10
2023-03-01T08:04:58.460Z,0.22
2023-03-01T08:08:25.873Z,0.36
2023-03-01T08:11:53.681Z,0.51
2023-03-01T08:15:21.336Z,0.66
2023-03-01T08:18:48.000Z,0.82
2023-03-01T08:22:14.606Z,1.01
2023-03-01T08:25:42.010Z,1.17
2023-03-01T08:29:08.972Z,1.35
2023-03-01T08:32:40.014Z,1.51
2023-03-01T08:36:11.398Z,1.67
2023-03-01T08:39:38.438Z,1.81
2023-03-01T08:43:05.137Z,1.94
2023-03-01T08:46:34.030Z,2.05
2023-03-01T08:50:02.144Z,2.17
2023-03-01T08:53:28.922Z,2.27
2023-03-01T08:56:55.911Z,2.37
2023-03-01T09:00:27.146Z,2.46
2023-03-01T09:03:53.894Z,2.58
2023-03-01T09:07:20.698Z,2.67
2023-03-01T09:10:50.321Z,2.77
2023-03-01T09:14:17.509Z,2.88
2023-03-01T09:17:44.039Z,3.01
2023-03-01T09:21:13.125Z,3.13
2023-03-01T09:24:40.850Z,3.26
2023-03-01T09:28:27.570Z,3.39
2023-03-01T09:31:56.945Z,3.52
2023-03-01T09:35:24.136Z,3.61
2023-03-01T09:38:54.212Z,3.73
2023-03-01T09:42:21.645Z,3.85
2023-03-01T09:45:52.419Z,3.97
2023-03-01T09:49:25.667Z,4.12
2023-03-01T09:52:57.184Z,4.29
2023-03-01T09:56:27.897Z,4.44
2023-03-01T10:00:13.843Z,4.63
2023-03-01T10:03:46.530Z,4.82
2023-03-01T10:07:29.827Z,4.97
2023-03-01T10:10:57.780Z,5.14
2023-03-01T10:14:34.305Z,5.27
2023-03-01T10:18:08.757Z,5.40
2023-03-01T10:21:43.671Z,5.48
2023-03-01T10:25:15.570Z,5.58
2023-03-01T10:28:53.091Z,5.70
2023-03-01T10:32:25.046Z,5.82
2023-03-01T10:35:52.152Z,5.93
2023-03-01T10:39:22.000Z,6.06
2023-03-01T10:42:52.845Z,6.13
2023-03-01T10:46:31.075Z,6.22
2023-03-01T10:50:03.059Z,6.30
2023-03-01T10:53:34.625Z,6.39
2023-03-01T10:57:03.846Z,6.50
2023-03-01T11:00:31.454Z,6.62
2023-03-01T11:04:16.108Z,6.77
2023-03-01T11:07:53.105Z,6.93
2023-03-01T11:11:32.574Z,7.06
2023-03-01T11:15:01.482Z,7.17
2023-03-01T11:18:45.825Z,7.28
2023-03-01T11:22:20.813Z,7.41
2023-03-01T11:25:54.208Z,7.49
2023-03-01T11:29:43.224Z,7.59
2023-03-01T11:33:24.315Z,7.72
2023-03-01T11:36:56.347Z,7.81
2023-03-01T11:40:28.413Z,7.90
2023-03-01T11:44:02.023Z,8.00
2023-03-01T11:47:42.253Z,8.07
2023-03-01T11:51:18.451Z,8.14
2023-03-01T11:55:00.258Z,8.23
2023-03-01T11:58:44.679Z,8.34
2023-03-01T12:02:37.563Z,8.48
2023-03-01T12:06:25.313Z,8.61
2023-03-01T12:10:15.389Z,8.67
2023-03-01T12:14:15.277Z,8.80
2023-03-01T12:18:00.859Z,9.06
2023-03-01T12:21:42.225Z,9.25
2023-03-01T12:25:23.414Z,9.40
2023-03-01T12:29:09.045Z,9.51
2023-03-01T12:32:53.882Z,9.66
2023-03-01T12:36:34.143Z,9.81
2023-03-01T12:40:19.473Z,9.94
2023-03-01T12:43:59.712Z,10.05
2023-03-01T12:47:38.881Z,10.17
2023-03-01T12:51:12.099Z,10.32
2023-03-01T12:54:40.766Z,10.50
2023-03-01T12:58:22.466Z,10.64
2023-03-01T13:01:59.144Z,10.81
2023-03-01T13:05:37.707Z,10.96
2023-03-01T13:09:11.981Z,11.14
2023-03-01T13:12:53.888Z,11.28
2023-03-01T13:16:46.300Z,11.43
2023-03-01T13:20:19.737Z,11.53
2023-03-01T13:23:50.316Z,11.71
2023-03-01T13:27:30.508Z,11.79
2023-03-01T13:30:57.298Z,11.94
2023-03-01T13:34:47.796Z,12.09
2023-03-01T13:38:56.382Z,12.13
2023-03-01T13:42:48.159Z,12.25
2023-03-01T13:46:23.163Z,12.37
2023-03-01T13:49:54.729Z,12.46
2023-03-01T13:53:25.247Z,12.57
2023-03-01T13:56:53.347Z,12.59
2023-03-01T14:00:38.762Z,12.63
2023-03-01T14:04:21.037Z,12.62
2023-03-01T14:07:55.003Z,12.61
2023-03-01T14:11:56.045Z,12.64
2023-03-01T14:15:30.516Z,12.61
2023-03-01T14:19:12.722Z,12.61
2023-03-01T14:22:43.206Z,12.54
2023-03-01T14:26:10.730Z,12.49
2023-03-01T14:29:42.405Z,12.37
2023-03-01T14:33:21.448Z,12.21
2023-03-01T14:36:48.222Z,12.07
2023-03-01T14:40:29.488Z,11.94
2023-03-01T14:43:59.792Z,11.81
2023-03-01T14:47:32.285Z,11.73
2023-03-01T14:51:01.261Z,11.66
2023-03-01T14:54:37.651Z,11.54
2023-03-01T14:58:07.791Z,11.36
2023-03-01T15:01:34.788Z,11.18
2023-03-01T15:05:08.564Z,11.01
2023-03-01T15:08:37.720Z,10.85
2023-03-01T15:12:24.954Z,10.74
2023-03-01T15:15:53.244Z,10.58
2023-03-01T15:19:22.894Z,10.46
2023-03-01T15:22:50.387Z,10.33
2023-03-01T15:26:30.484Z,10.22
2023-03-01T15:30:00.343Z,10.02
2023-03-01T15:33:37.282Z,9.83
2023-03-01T15:37:09.882Z,9.67
2023-03-01T15:40:39.368Z,9.53
2023-03-01T15:44:19.582Z,9.38
2023-03-01T15:47:52.501Z,9.20
2023-03-01T15:51:18.050Z,9.04
2023-03-01T15:54:45.213Z,8.86
2023-03-01T15:58:17.803Z,8.72
2023-03-01T16:01:45.663Z,8.57
2023-03-01T16:05:21.447Z,8.43
2023-03-01T16:08:48.661Z,8.28
2023-03-01T16:12:19.015Z,8.17
2023-03-01T16:15:49.905Z,8.05
2023-03-01T16:19:17.015Z,7.92
2023-03-01T16:22:44.942Z,7.77
2023-03-01T16:26:12.495Z,7.61
2023-03-01T16:29:39.163Z,7.47
2023-03-01T16:33:28.822Z,7.32
2023-03-01T16:36:56.765Z,7.17
2023-03-01T16:40:25.790Z,7.03
2023-03-01T16:43:53.362Z,6.91
2023-03-01T16:47:20.826Z,6.77
2023-03-01T16:50:57.769Z,6.63
2023-03-01T16:54:24.819Z,6.47
2023-03-01T16:57:57.239Z,6.31
2023-03-01T17:01:27.124Z,6.14
2023-03-01T17:04:59.535Z,5.97
2023-03-01T17:08:31.193Z,5.80
2023-03-01T17:11:59.166Z,5.65
2023-03-01T17:15:26.550Z,5.52
2023-03-01T17:18:59.043Z,5.38
2023-03-01T17:22:28.562Z,5.23
2023-03-01T17:25:56.200Z,5.08
2023-03-01T17:29:23.650Z,4.94
2023-03-01T17:32:51.113Z,4.80
2023-03-01T17:36:19.535Z,4.66
2023-03-01T17:39:47.059Z,4.46
2023-03-01T17:43:14.363Z,4.33
2023-03-01T17:46:49.011Z,4.23
2023-03-01T17:50:18.837Z,4.12
2023-03-01T17:53:49.534Z,4.01
2023-03-01T17:57:22.564Z,3.90
2023-03-01T18:00:51.318Z,3.78
2023-03-01T18:04:19.396Z,3.70
2023-03-01T18:07:49.179Z,3.61
2023-03-01T18:11:16.722Z,3.54
2023-03-01T18:14:44.076Z,3.52
2023-03-01T18:18:11.098Z,3.47
2023-03-01T18:21:38.936Z,3.42
2023-03-01T18:25:12.071Z,3.39
2023-03-01T18:28:40.376Z,3.33
2023-03-01T18:32:08.116Z,3.25
2023-03-01T18:35:40.561Z,3.18
2023-03-01T18:39:11.415Z,3.11
2023-03-01T18:42:40.802Z,2.98
2023-03-01T18:46:09.868Z,2.84
2023-03-01T18:49:38.265Z,2.69
2023-03-01T18:53:10.268Z,2.59
2023-03-01T18:56:41.027Z,2.49
2023-03-01T19:00:12.244Z,2.41
2023-03-01T19:03:40.412Z,2.35
2023-03-01T19:07:08.697Z,2.31
2023-03-01T19:10:36.260Z,2.28
2023-03-01T19:14:05.504Z,2.25
2023-03-01T19:17:32.646Z,2.23
2023-03-01T19:21:04.117Z,2.19
2023-03-01T19:24:33.117Z,2.13
2023-03-01T19:28:01.597Z,2.09
2023-03-01T19:31:31.846Z,2.08
2023-03-01T19:34:58.527Z,2.07
2023-03-01T19:38:30.562Z,2.07
2023-03-01T19:42:02.313Z,2.06
2023-03-01T19:45:33.577Z,2.07
2023-03-01T19:49:03.305Z,2.10
2023-03-01T19:52:40.116Z,2.10
2023-03-01T19:56:09.039Z,2.11
2023-03-01T19:59:36.699Z,2.11
2023-03-01T20:03:04.463Z,2.07
2023-03-01T20:06:33.672Z,1.99
2023-03-01T20:10:09.415Z,1.83
2023-03-01T20:13:40.118Z,1.76
2023-03-01T20:17:08.162Z,1.69
2023-03-01T20:20:35.666Z,1.61
2023-03-01T20:24:05.677Z,1.55
2023-03-01T20:27:33.040Z,1.50
2023-03-01T20:31:06.896Z,1.44
2023-03-01T20:34:34.712Z,1.35
2023-03-01T20:38:03.793Z,1.28
2023-03-01T20:41:32.098Z,1.22
2023-03-01T20:44:59.151Z,1.16
2023-03-01T20:48:27.703Z,1.11
2023-03-01T20:51:59.688Z,1.08
2023-03-01T20:55:26.968Z,1.04
2023-03-01T20:58:55.850Z,1.02
2023-03-01T21:02:22.797Z,1.00
2023-03-01T21:05:51.432Z,1.00
2023-03-01T21:09:17.963Z,1.01
2023-03-01T21:12:44.711Z,1.03
2023-03-01T21:16:16.111Z,1.06
2023-03-01T21:19:47.060Z,1.10
2023-03-01T21:23:14.674Z,1.13
2023-03-01T21:26:41.767Z,1.15
2023-03-01T21:30:10.814Z,1.12
2023-03-01T21:33:42.691Z,1.11
2023-03-01T21:37:13.896Z,1.09
2023-03-01T21:40:43.419Z,1.04
2023-03-01T21:44:11.261Z,0.99
2023-03-01T21:47:39.629Z,0.91
2023-03-01T21:51:07.804Z,0.81
2023-03-01T21:54:35.207Z,0.75
2023-03-01T21:58:03.297Z,0.67
2023-03-01T22:01:41.585Z,0.60
2023-03-01T22:05:12.865Z,0.53
2023-03-01T22:08:39.806Z,0.48
2023-03-01T22:12:08.973Z,0.42
2023-03-01T22:15:36.657Z,0.35
2023-03-01T22:19:04.525Z,0.32
2023-03-01T22:22:35.520Z,0.29
2023-03-01T22:26:04.486Z,0.25
2023-03-01T22:29:33.267Z,0.21
2023-03-01T22:33:00.658Z,0.21
2023-03-01T22:36:31.554Z,0.24
2023-03-01T22:40:00.842Z,0.31
2023-03-01T22:43:28.403Z,0.42
2023-03-01T22:46:56.986Z,0.48
2023-03-01T22:50:24.336Z,0.65
2023-03-01T22:53:57.041Z,0.78
2023-03-01T22:57:24.279Z,0.91
2023-03-01T23:00:53.101Z,1.03
2023-03-01T23:04:20.946Z,1.12
2023-03-01T23:07:52.183Z,1.19
2023-03-01T23:11:22.441Z,1.24
2023-03-01T23:14:49.273Z,1.31
2023-03-01T23:18:19.051Z,1.32
2023-03-01T23:21:50.622Z,1.34
2023-03-01T23:25:18.584Z,1.35
2023-03-01T23:28:46.198Z,1.38
2023-03-01T23:32:17.445Z,1.41
2023-03-01T23:35:44.937Z,1.41
2023-03-01T23:39:13.868Z,1.41
2023-03-01T23:42:41.977Z,1.39
2023-03-01T23:46:14.663Z,1.40
2023-03-01T23:49:43.752Z,1.40
2023-03-01T23:53:12.382Z,1.43
2023-03-01T23:56:43.593Z,1.47
